Time;durP1;ratioP1;P1;durP2;ratioP2;P2;SDS_P1;SDS_P2;PMS_P1;PMS_P2;Temp;Humidity;BMP_temperature;BMP_pressure;BME280_temperature;BME280_humidity;BME280_pressure;Samples;Min_cycle;Max_cycle;Signal;HPM_P1;HPM_P2
2022/06/05 00:08:33;;;;;;;8.73;3.67;;;18.20;99.90;;;;;;4776189;30;20043;-83
2022/06/05 00:11:11;;;;;;;9.13;3.78;;;21.90;99.90;;;;;;4758544;30;20619;-86
2022/06/05 00:14:14;;;;;;;10.50;4.10;;;20.40;99.90;;;;;;4760204;30;20691;-87
2022/06/05 00:16:58;;;;;;;11.50;4.03;;;20.40;99.90;;;;;;4771554;30;20031;-96
2022/06/05 00:19:52;;;;;;;8.43;4.20;;;20.40;99.90;;;;;;4902700;24;20058;-90
2022/06/05 00:28:38;;;;;;;10.38;4.82;;;20.40;99.90;;;;;;4838550;24;20066;-81
2022/06/05 00:47:34;;;;;;;8.20;3.97;;;20.20;99.90;;;;;;5282665;24;20062;-96
2022/06/05 00:50:18;;;;;;;12.02;4.38;;;20.20;99.90;;;;;;4817529;29;20519;-88
2022/06/05 00:53:05;;;;;;;8.55;4.78;;;20.10;99.90;;;;;;4823499;29;20122;-96
2022/06/05 00:55:53;;;;;;;10.05;4.05;;;20.20;99.90;;;;;;4824927;29;20027;-94
2022/06/05 00:58:37;;;;;;;12.50;4.30;;;20.20;99.90;;;;;;4787867;29;20031;-95
2022/06/05 01:01:19;;;;;;;9.30;4.00;;;20.10;99.90;;;;;;4814859;24;20017;-96
2022/06/05 01:04:06;;;;;;;9.25;4.65;;;20.10;99.90;;;;;;4818631;29;20046;-90
2022/06/05 01:06:48;;;;;;;10.63;4.03;;;21.40;99.90;;;;;;4760810;29;20034;-94
2022/06/05 01:09:32;;;;;;;9.70;3.30;;;20.90;99.90;;;;;;4815552;29;20335;-87
2022/06/05 01:15:05;;;;;;;9.85;3.90;;;19.70;99.90;;;;;;4798300;29;20051;-96
2022/06/05 01:18:15;;;;;;;9.20;4.25;;;19.70;99.90;;;;;;4782585;29;20450;-96
2022/06/05 01:21:18;;;;;;;8.35;4.30;;;20.80;99.90;;;;;;4781710;29;20278;-92
2022/06/05 01:24:17;;;;;;;9.35;4.28;;;19.60;99.90;;;;;;4782297;29;20263;-96
2022/06/05 01:27:08;;;;;;;10.20;4.50;;;19.50;99.90;;;;;;4806386;24;20078;-96
2022/06/05 01:29:48;;;;;;;;;;;;;;;;;;;;;
2022/06/05 01:32:29;;;;;;;6.78;3.47;;;19.50;99.90;;;;;;4817317;29;20034;-94
2022/06/05 01:35:01;;;;;;;9.95;4.60;;;19.50;99.90;;;;;;4822912;29;20037;-84
2022/06/05 01:37:42;;;;;;;8.65;4.20;;;19.40;99.90;;;;;;4805923;29;20247;-96
2022/06/05 01:40:25;;;;;;;8.90;4.28;;;19.40;99.90;;;;;;4816388;29;20342;-96
2022/06/05 01:43:17;;;;;;;9.20;4.10;;;19.40;99.90;;;;;;4800259;29;20087;-81
2022/06/05 01:45:49;;;;;;;12.88;4.43;;;19.50;99.90;;;;;;4816250;29;20034;-96
2022/06/05 01:51:13;;;;;;;9.30;3.63;;;19.40;99.90;;;;;;4822911;24;20065;-86
2022/06/05 01:53:55;;;;;;;10.50;3.90;;;19.30;99.90;;;;;;4803435;29;20030;-87
2022/06/05 01:58:57;;;;;;;9.10;4.00;;;19.30;99.90;;;;;;4822792;24;20092;-88
2022/06/05 02:01:37;;;;;;;9.85;4.07;;;19.20;99.90;;;;;;4803119;29;20076;-96
2022/06/05 02:04:48;;;;;;;8.77;4.07;;;19.20;99.90;;;;;;4805809;29;20034;-95
2022/06/05 02:11:13;;;;;;;13.75;4.20;;;19.20;99.90;;;;;;4802794;27;20050;-88
2022/06/05 02:14:28;;;;;;;8.23;3.75;;;20.80;99.90;;;;;;4833450;29;20026;-83
2022/06/05 02:17:05;;;;;;;12.60;3.92;;;20.10;99.90;;;;;;4788375;29;20059;-80
2022/06/05 02:19:35;;;;;;;10.23;3.53;;;18.90;99.90;;;;;;4792714;29;20039;-80
2022/06/05 02:22:32;;;;;;;8.18;4.00;;;17.90;99.90;;;;;;4810544;29;20093;-79
2022/06/05 02:25:05;;;;;;;9.88;4.22;;;18.90;99.90;;;;;;4880269;24;20062;-82
2022/06/05 02:27:43;;;;;;;11.02;3.88;;;18.90;99.90;;;;;;4840216;29;20066;-96
2022/06/05 02:30:24;;;;;;;8.48;3.83;;;19.40;99.90;;;;;;4809849;29;20039;-87
2022/06/05 02:33:33;;;;;;;10.35;3.80;;;19.50;99.90;;;;;;4825620;29;20118;-86
2022/06/05 02:39:55;;;;;;;8.48;3.70;;;20.70;99.90;;;;;;4820886;29;20178;-94
2022/06/05 02:42:45;;;;;;;8.05;4.18;;;19.90;99.90;;;;;;4800857;29;20057;-83
2022/06/05 02:45:17;;;;;;;9.30;4.65;;;19.90;99.90;;;;;;4815571;29;20042;-90
2022/06/05 02:48:27;;;;;;;10.40;4.07;;;20.20;99.90;;;;;;4816115;29;20035;-95
2022/06/05 02:51:23;;;;;;;11.73;3.85;;;19.90;99.90;;;;;;4798952;29;20414;-95
2022/06/05 02:53:59;;;;;;;9.50;3.78;;;21.10;99.90;;;;;;4817600;29;20027;-92
2022/06/05 02:56:31;;;;;;;8.75;3.88;;;21.10;99.90;;;;;;4822016;29;20051;-96
2022/06/05 02:59:06;;;;;;;8.43;3.20;;;22.40;99.90;;;;;;4820157;29;20090;-94
2022/06/05 03:05:10;;;;;;;11.27;3.90;;;18.30;99.00;;;;;;4838798;24;20091;-94
2022/06/05 03:07:46;;;;;;;11.07;4.30;;;20.80;99.90;;;;;;4804704;29;20088;-89
2022/06/05 03:10:15;;;;;;;8.90;3.30;;;20.90;99.60;;;;;;4804957;29;20070;-82
2022/06/05 03:12:53;;;;;;;7.88;4.03;;;20.70;99.70;;;;;;4841645;24;20018;-92
2022/06/05 03:15:29;;;;;;;6.88;3.42;;;21.30;99.90;;;;;;4808626;29;20047;-93
2022/06/05 03:18:07;;;;;;;7.65;3.78;;;20.80;99.90;;;;;;4806975;29;20133;-82
2022/06/05 03:20:33;;;;;;;10.98;3.90;;;;;;;;;;4812921;29;20104;-83
2022/06/05 03:23:09;;;;;;;8.40;3.25;;;20.50;99.90;;;;;;4813764;29;20127;-95
2022/06/05 03:28:13;;;;;;;10.75;3.75;;;20.40;99.90;;;;;;4836798;24;20299;-92
2022/06/05 03:30:51;;;;;;;9.55;3.70;;;20.40;99.90;;;;;;4831104;29;20112;-96
2022/06/05 03:33:26;;;;;;;11.48;3.35;;;20.40;99.90;;;;;;4821155;29;20030;-96
2022/06/05 03:35:59;;;;;;;12.82;3.78;;;20.50;99.90;;;;;;4824184;29;20031;-95
2022/06/05 03:38:28;;;;;;;13.40;3.20;;;18.70;99.90;;;;;;4822618;29;20023;-96
2022/06/05 03:41:13;;;;;;;9.25;3.83;;;20.50;99.90;;;;;;4819694;29;20058;-82
2022/06/05 03:43:47;;;;;;;9.35;3.60;;;20.20;99.90;;;;;;4818121;29;20026;-95
2022/06/05 03:46:22;;;;;;;9.38;3.83;;;19.70;99.90;;;;;;4813168;29;20529;-95
2022/06/05 03:48:50;;;;;;;8.32;3.90;;;19.10;99.90;;;;;;4814257;29;20046;-83
2022/06/05 03:51:18;;;;;;;10.38;4.50;;;19.70;99.90;;;;;;4819714;24;20149;-85
2022/06/05 03:53:56;;;;;;;9.80;3.85;;;19.70;99.90;;;;;;4803327;24;20033;-96
2022/06/05 03:56:38;;;;;;;9.38;3.70;;;19.80;99.90;;;;;;4797258;29;20050;-83
2022/06/05 03:59:07;;;;;;;7.80;3.85;;;20.30;99.90;;;;;;4796418;29;20040;-95
2022/06/05 04:01:41;;;;;;;8.98;3.97;;;20.30;99.90;;;;;;4813060;29;20111;-95
2022/06/05 04:04:07;;;;;;;10.13;3.55;;;20.80;99.90;;;;;;4813273;29;20038;-87
2022/06/05 04:06:41;;;;;;;9.20;3.20;;;21.10;99.50;;;;;;4813179;29;20026;-95
2022/06/05 04:09:15;;;;;;;9.57;3.67;;;19.30;99.40;;;;;;4813502;29;20134;-94
2022/06/05 04:11:50;;;;;;;9.10;3.10;;;20.60;99.90;;;;;;4798831;29;20095;-96
2022/06/05 04:14:16;;;;;;;10.98;4.35;;;20.50;99.90;;;;;;4814193;29;20170;-95
2022/06/05 04:16:53;;;;;;;12.43;4.97;;;20.50;99.60;;;;;;4798890;29;20141;-95
2022/06/05 04:19:39;;;;;;;9.43;3.97;;;17.60;98.80;;;;;;4815746;29;20138;-91
2022/06/05 04:22:08;;;;;;;7.43;3.70;;;20.40;99.70;;;;;;4775906;30;20063;-82
2022/06/05 04:25:01;;;;;;;8.32;3.72;;;20.20;99.90;;;;;;4784315;24;20257;-82
2022/06/05 04:27:30;;;;;;;7.55;4.00;;;21.50;99.90;;;;;;4749561;30;20252;-89
2022/06/05 04:30:16;;;;;;;9.00;3.58;;;20.80;99.60;;;;;;4752674;30;20052;-87
2022/06/05 04:32:42;;;;;;;9.30;3.97;;;22.40;99.90;;;;;;4753922;30;20344;-80
2022/06/05 04:35:17;;;;;;;8.55;3.92;;;20.90;99.50;;;;;;4754666;30;20029;-95
2022/06/05 04:37:52;;;;;;;7.72;3.22;;;21.00;98.80;;;;;;4754317;30;20448;-96
2022/06/05 04:40:23;;;;;;;8.85;3.63;;;21.10;99.50;;;;;;4749022;30;20043;-95
2022/06/05 04:45:28;;;;;;;10.30;3.67;;;21.70;98.00;;;;;;4815088;29;20114;-96
2022/06/05 04:47:54;;;;;;;9.63;4.05;;;21.90;98.10;;;;;;4816615;29;20041;-88
2022/06/05 04:50:28;;;;;;;9.77;3.75;;;22.20;96.80;;;;;;4824083;24;20038;-96
2022/06/05 04:53:19;;;;;;;7.97;3.40;;;19.60;97.00;;;;;;4800100;29;20288;-89
2022/06/05 05:03:51;;;;;;;10.23;4.68;;;;;;;;;;4872544;24;20058;-90
2022/06/05 05:06:57;;;;;;;7.93;3.53;;;22.30;96.40;;;;;;4812308;29;20090;-96
2022/06/05 05:09:37;;;;;;;30.92;13.85;;;22.90;96.50;;;;;;4816729;29;20030;-96
2022/06/05 05:17:17;;;;;;;9.88;5.40;;;22.60;95.70;;;;;;4938117;24;20077;-94
2022/06/05 05:36:19;;;;;;;11.50;4.85;;;22.80;95.90;;;;;;4874750;24;20054;-95
2022/06/05 05:44:51;;;;;;;9.43;4.00;;;23.20;95.50;;;;;;4868194;29;20063;-95
2022/06/05 05:50:03;;;;;;;8.05;4.07;;;22.80;95.60;;;;;;4830108;24;20065;-94
2022/06/05 05:52:36;;;;;;;10.48;4.20;;;22.90;95.70;;;;;;4817708;29;20121;-94
2022/06/05 05:55:02;;;;;;;9.48;4.40;;;24.10;96.00;;;;;;4874970;24;20062;-85
2022/06/05 05:57:39;;;;;;;8.45;4.35;;;23.10;95.30;;;;;;4820754;29;20545;-95
2022/06/05 06:00:15;;;;;;;11.35;4.05;;;23.30;94.90;;;;;;4827588;29;20093;-95
2022/06/05 06:02:43;;;;;;;6.22;3.42;;;24.30;94.80;;;;;;4829263;29;20033;-85
2022/06/05 06:07:44;;;;;;;8.65;4.20;;;23.40;94.60;;;;;;1848448;24;20082;-88
2022/06/05 06:20:47;;;;;;;9.00;3.38;;;23.80;93.80;;;;;;4869289;24;20066;-81
2022/06/05 06:26:10;;;;;;;11.30;4.13;;;23.90;93.80;;;;;;4843171;29;20061;-80
2022/06/05 06:28:38;;;;;;;10.75;5.05;;;24.00;94.10;;;;;;4771898;29;20027;-80
2022/06/05 06:31:28;;;;;;;11.02;4.57;;;23.90;93.90;;;;;;4786757;29;20051;-79
2022/06/05 06:33:54;;;;;;;10.90;4.40;;;;;;;;;;4846127;24;20027;-82
2022/06/05 06:41:32;;;;;;;12.80;6.30;;;24.00;93.90;;;;;;4821323;29;20054;-81
2022/06/05 06:43:58;;;;;;;;;;;23.70;95.30;;;;;;4837903;24;20038;-80
2022/06/05 06:46:27;;;;;;;12.00;5.25;;;24.40;95.30;;;;;;4809785;29;19933;-79
2022/06/05 06:51:51;;;;;;;10.65;4.93;;;24.30;94.20;;;;;;4853500;24;20154;-82
2022/06/05 06:54:19;;;;;;;11.95;5.93;;;24.40;94.20;;;;;;4836694;29;20056;-85
2022/06/05 07:02:11;;;;;;;10.27;4.80;;;24.80;93.20;;;;;;4814285;29;20061;-83
2022/06/05 07:04:38;;;;;;;10.52;4.80;;;25.00;93.20;;;;;;4803953;29;20506;-80
2022/06/05 07:07:05;;;;;;;10.40;5.20;;;24.80;92.90;;;;;;4821785;29;20042;-81
2022/06/05 07:09:32;;;;;;;10.98;4.28;;;25.00;92.40;;;;;;4798173;29;20339;-80
2022/06/05 07:15:02;;;;;;;8.85;4.32;;;25.40;91.90;;;;;;4849452;24;20073;-80
2022/06/05 07:17:28;;;;;;;9.80;4.43;;;25.60;92.10;;;;;;4810226;29;20134;-81
2022/06/05 07:19:59;;;;;;;11.80;5.35;;;25.50;91.30;;;;;;4804677;29;20155;-85
2022/06/05 07:22:37;;;;;;;9.07;4.50;;;25.60;91.20;;;;;;4835164;24;20329;-92
2022/06/05 07:27:50;;;;;;;10.93;5.40;;;25.80;90.60;;;;;;4850660;24;20096;-80
2022/06/05 07:30:17;;;;;;;10.27;4.43;;;25.80;91.00;;;;;;4832620;29;20045;-83
2022/06/05 07:32:48;;;;;;;12.10;5.38;;;26.10;90.80;;;;;;4804353;29;20026;-84
2022/06/05 07:35:14;;;;;;;11.30;4.95;;;26.30;91.40;;;;;;4816216;29;20094;-80
2022/06/05 07:37:47;;;;;;;14.68;5.70;;;26.40;90.80;;;;;;4832184;29;20034;-82
2022/06/05 07:40:28;;;;;;;12.35;6.40;;;26.60;90.20;;;;;;4831403;29;20049;-85
2022/06/05 07:43:12;;;;;;;12.65;5.70;;;26.60;90.40;;;;;;4828256;29;20045;-79
2022/06/05 07:45:54;;;;;;;12.95;5.03;;;26.70;90.60;;;;;;4808689;29;20034;-85
2022/06/05 07:48:37;;;;;;;11.18;4.90;;;26.90;89.20;;;;;;4830922;24;20058;-95
2022/06/05 07:56:31;;;;;;;10.07;5.15;;;27.40;87.40;;;;;;4829881;29;20036;-93
2022/06/05 08:04:20;;;;;;;10.02;5.03;;;27.70;87.30;;;;;;1105977;24;20380;-96
2022/06/05 08:06:47;;;;;;;8.70;5.68;;;28.50;86.80;;;;;;4829240;29;20078;-81
2022/06/05 08:11:58;;;;;;;10.38;5.38;;;28.60;83.50;;;;;;5084384;24;20130;-93
2022/06/05 08:14:28;;;;;;;8.50;4.78;;;28.90;82.80;;;;;;4832149;29;20042;-95
2022/06/05 08:16:58;;;;;;;15.35;8.20;;;28.60;82.10;;;;;;4814044;29;20045;-80
2022/06/05 08:19:24;;;;;;;11.63;5.80;;;28.60;81.80;;;;;;4834370;29;20034;-95
2022/06/05 08:21:52;;;;;;;10.52;5.00;;;28.70;81.00;;;;;;4823751;29;20093;-94
2022/06/05 08:27:04;;;;;;;8.65;4.47;;;28.90;79.50;;;;;;4831629;24;20071;-82
2022/06/05 08:29:41;;;;;;;9.13;4.88;;;29.00;81.20;;;;;;4820940;29;20042;-95
2022/06/05 08:32:19;;;;;;;10.63;5.18;;;29.00;80.50;;;;;;4805809;29;20037;-93
2022/06/05 08:34:53;;;;;;;12.57;5.22;;;29.20;79.70;;;;;;4824031;29;20086;-95
2022/06/05 08:44:23;;;;;;;10.32;4.72;;;28.90;75.20;;;;;;4772816;30;20486;-96
2022/06/05 08:47:03;;;;;;;10.35;4.80;;;29.50;75.40;;;;;;4750756;30;20027;-94
2022/06/05 08:50:11;;;;;;;11.63;4.53;;;30.00;76.40;;;;;;4772800;30;20050;-95
2022/06/05 08:53:19;;;;;;;10.43;4.68;;;29.30;72.80;;;;;;4750388;30;20028;-83
2022/06/05 08:58:53;;;;;;;11.43;4.13;;;29.70;73.10;;;;;;4927520;24;20054;-85
2022/06/05 09:06:36;;;;;;;10.13;3.67;;;30.10;70.30;;;;;;5404042;24;20038;-81
2022/06/05 09:09:13;;;;;;;7.15;2.80;;;30.30;67.40;;;;;;4829240;29;20033;-86
2022/06/05 09:22:07;;;;;;;9.38;2.30;;;30.60;63.50;;;;;;4818270;29;20046;-84
2022/06/05 09:38:12;;;;;;;6.72;2.10;;;31.50;59.30;;;;;;4876265;24;20061;-82
2022/06/05 09:41:19;;;;;;;5.88;2.70;;;31.50;57.40;;;;;;4816227;29;20657;-82
2022/06/05 09:44:22;;;;;;;8.95;3.28;;;31.60;60.30;;;;;;4838800;29;20018;-80
2022/06/05 09:47:39;;;;;;;9.38;3.13;;;32.60;60.20;;;;;;4818968;29;20034;-92
2022/06/05 09:53:03;;;;;;;6.78;2.60;;;30.80;58.80;;;;;;4982819;24;20055;-89
2022/06/05 09:56:05;;;;;;;9.40;3.58;;;31.80;58.80;;;;;;4816915;29;20042;-93
2022/06/05 09:59:17;;;;;;;13.65;2.90;;;32.50;60.40;;;;;;4814235;29;20057;-90
2022/06/05 10:21:58;;;;;;;8.85;2.38;;;32.20;54.90;;;;;;2020339;24;20062;-86
2022/06/05 10:28:33;;;;;;;8.70;2.83;;;34.20;56.50;;;;;;4817245;29;20065;-93
2022/06/05 10:31:20;;;;;;;9.85;2.42;;;33.00;54.20;;;;;;4800239;29;20349;-89
2022/06/05 10:37:58;;;;;;;12.40;2.53;;;34.30;51.50;;;;;;4815894;29;20118;-95
2022/06/05 10:44:38;;;;;;;13.20;2.20;;;34.50;49.40;;;;;;4726070;30;20590;-83
2022/06/05 10:58:08;;;;;;;4.82;1.63;;;34.70;47.00;;;;;;4722908;30;20132;-94
2022/06/05 11:09:44;;;;;;;14.13;2.95;;;32.80;46.80;;;;;;4796462;29;20469;-84
2022/06/05 11:22:29;;;;;;;14.88;3.05;;;34.60;47.00;;;;;;4739938;30;20187;-92
2022/06/05 11:25:32;;;;;;;13.45;2.20;;;34.80;46.60;;;;;;4739821;30;20132;-93
2022/06/05 11:54:19;;;;;;;12.00;2.90;;;38.60;44.10;;;;;;4814856;29;20564;-89
2022/06/05 12:09:12;;;;;;;8.02;2.55;;;38.80;43.00;;;;;;5524374;24;20057;-90
2022/06/05 12:12:46;;;;;;;10.38;2.65;;;39.40;42.80;;;;;;4809357;29;20242;-85
2022/06/05 12:16:22;;;;;;;15.55;2.75;;;41.60;42.90;;;;;;4794527;29;20081;-86
2022/06/05 12:36:32;;;;;;;12.85;2.75;;;40.00;41.30;;;;;;4794889;30;20046;-95
2022/06/05 12:39:53;;;;;;;11.43;3.78;;;38.20;40.60;;;;;;4772041;30;20043;-93
2022/06/05 12:46:21;;;;;;;14.63;4.15;;;41.00;41.60;;;;;;4817845;29;20049;-88
2022/06/05 12:49:43;;;;;;;9.13;3.00;;;40.60;41.60;;;;;;4797131;29;20019;-91
2022/06/05 12:59:43;;;;;;;12.45;3.15;;;38.80;43.50;;;;;;4722278;30;20044;-94
2022/06/05 13:23:10;;;;;;;12.37;3.83;;;37.00;46.40;;;;;;4817144;29;20042;-94
2022/06/05 13:26:15;;;;;;;13.40;3.85;;;38.80;46.10;;;;;;4802543;29;20084;-93
2022/06/05 13:32:50;;;;;;;13.38;3.80;;;37.80;44.30;;;;;;4734298;30;20101;-80
2022/06/05 13:41:18;;;;;;;7.90;3.10;;;39.70;42.20;;;;;;5286094;24;20091;-81
2022/06/05 13:43:56;;;;;;;10.98;4.47;;;39.80;42.20;;;;;;4814131;29;20034;-92
2022/06/05 13:54:21;;;;;;;9.23;3.40;;;40.80;41.60;;;;;;4794886;29;20290;-84
2022/06/05 14:03:05;;;;;;;11.48;3.42;;;41.40;40.20;;;;;;5133956;24;20077;-91
2022/06/05 14:06:16;;;;;;;10.98;3.28;;;40.60;40.90;;;;;;4806117;29;20062;-91
2022/06/05 14:09:09;;;;;;;11.90;3.30;;;41.50;42.90;;;;;;4823301;29;20022;-90
2022/06/05 14:11:40;;;;;;;12.18;4.22;;;39.80;41.70;;;;;;4824114;29;20042;-92
2022/06/05 14:14:16;;;;;;;;;;;40.90;42.30;;;;;;4818255;29;20654;-90
2022/06/05 14:22:48;;;;;;;13.55;4.15;;;40.90;41.60;;;;;;4797037;29;20050;-90
2022/06/05 14:25:46;;;;;;;11.30;3.53;;;42.20;42.40;;;;;;4868207;24;20062;-91
2022/06/05 14:28:46;;;;;;;11.88;3.92;;;40.50;41.40;;;;;;4816876;29;20478;-91
2022/06/05 14:53:04;;;;;;;10.82;3.97;;;39.80;43.30;;;;;;5460553;24;20601;-87
2022/06/05 15:13:48;;;;;;;8.32;3.47;;;37.40;46.60;;;;;;5010164;24;20575;-93
2022/06/05 15:30:18;;;;;;;10.63;3.45;;;36.90;46.70;;;;;;4954698;24;20050;-89
2022/06/05 15:33:02;;;;;;;12.30;4.25;;;36.30;48.50;;;;;;4813211;29;20048;-89
2022/06/05 15:35:35;;;;;;;12.70;4.35;;;35.60;49.80;;;;;;4814507;29;20040;-86
2022/06/05 15:38:28;;;;;;;10.20;3.78;;;35.30;50.20;;;;;;4816905;29;20051;-83
2022/06/05 15:41:37;;;;;;;9.30;3.63;;;35.00;50.50;;;;;;5200710;24;20107;-85
2022/06/05 16:00:17;;;;;;;16.20;4.75;;;32.60;54.20;;;;;;4814307;29;20060;-89
2022/06/05 16:03:27;;;;;;;15.60;4.28;;;32.60;54.70;;;;;;4759199;30;20126;-92
2022/06/05 16:10:08;;;;;;;16.85;5.90;;;34.00;56.80;;;;;;4886181;24;20123;-87
2022/06/05 16:16:42;;;;;;;24.40;4.68;;;31.80;57.20;;;;;;4813457;29;20026;-88
2022/06/05 16:22:55;;;;;;;13.05;3.42;;;29.50;61.10;;;;;;4820034;29;20099;-92
2022/06/05 16:25:47;;;;;;;19.42;4.78;;;28.40;70.70;;;;;;4817180;29;20023;-81
2022/06/05 16:28:50;;;;;;;14.73;4.15;;;28.80;71.90;;;;;;4815005;29;20026;-83
2022/06/05 16:41:55;;;;;;;12.15;4.55;;;26.70;78.80;;;;;;4815598;29;20299;-89
2022/06/05 16:44:58;;;;;;;11.90;4.50;;;28.90;75.90;;;;;;4800075;29;20050;-91
2022/06/05 16:54:57;;;;;;;12.32;3.35;;;31.60;65.70;;;;;;4722174;30;20093;-94
2022/06/05 16:57:23;;;;;;;9.95;3.47;;;30.60;63.50;;;;;;4709009;30;20609;-79
2022/06/05 17:00:24;;;;;;;18.10;4.63;;;30.20;65.10;;;;;;4703098;30;20065;-83
2022/06/05 17:03:32;;;;;;;11.27;3.78;;;30.40;65.10;;;;;;4703029;30;20037;-86
2022/06/05 17:06:24;;;;;;;11.23;4.18;;;30.00;64.90;;;;;;4689816;30;20075;-89
2022/06/05 17:09:18;;;;;;;11.48;4.05;;;29.80;67.00;;;;;;4686267;30;20052;-81
2022/06/05 17:12:01;;;;;;;13.90;3.88;;;30.80;68.30;;;;;;4687393;30;20114;-91
2022/06/05 17:14:58;;;;;;;13.27;5.18;;;29.40;67.30;;;;;;4702894;30;20049;-92
2022/06/05 17:17:35;;;;;;;19.30;5.18;;;27.90;67.50;;;;;;4666566;30;20046;-83
2022/06/05 17:20:57;;;;;;;14.68;4.93;;;28.80;73.60;;;;;;4666732;30;20052;-82
2022/06/05 17:24:00;;;;;;;10.02;4.07;;;27.50;75.50;;;;;;4635353;30;20197;-81
2022/06/05 17:27:03;;;;;;;16.83;4.30;;;27.70;77.10;;;;;;4633107;30;20228;-82
2022/06/05 17:30:07;;;;;;;12.95;4.40;;;29.80;79.50;;;;;;4633401;30;20153;-86
2022/06/05 17:36:09;;;;;;;16.38;6.90;;;27.50;79.60;;;;;;4833653;29;20402;-92
2022/06/05 17:39:06;;;;;;;22.67;7.35;;;28.80;82.30;;;;;;4744238;30;20384;-82
2022/06/05 17:42:03;;;;;;;16.10;6.40;;;26.90;82.30;;;;;;4815674;24;20145;-92
2022/06/05 18:01:17;;;;;;;10.00;3.10;;;25.60;86.80;;;;;;5116548;24;20062;-81
2022/06/05 18:03:44;;;;;;;8.32;2.20;;;25.50;87.30;;;;;;4830395;29;20037;-83
2022/06/05 18:06:32;;;;;;;12.93;3.35;;;25.50;89.40;;;;;;4829994;29;20054;-85
2022/06/05 18:12:13;;;;;;;10.55;2.45;;;24.10;90.40;;;;;;4831032;24;20126;-83
2022/06/05 18:15:01;;;;;;;11.05;3.15;;;25.00;91.20;;;;;;4823115;24;20153;-83
2022/06/05 18:18:05;;;;;;;12.10;3.30;;;22.20;90.80;;;;;;4817778;29;20033;-86
2022/06/05 18:20:53;;;;;;;8.90;2.53;;;24.90;92.50;;;;;;4817538;29;20033;-87
2022/06/05 18:23:40;;;;;;;11.30;2.67;;;25.00;93.30;;;;;;4833025;29;20053;-85
2022/06/05 18:26:56;;;;;;;15.07;3.38;;;24.80;92.90;;;;;;4818157;29;20046;-85
2022/06/05 18:29:41;;;;;;;12.95;3.97;;;25.40;94.40;;;;;;4818788;29;20037;-89
2022/06/05 18:32:28;;;;;;;10.63;2.70;;;24.50;94.20;;;;;;4823102;29;20094;-82
2022/06/05 18:35:05;;;;;;;14.50;3.28;;;24.40;94.30;;;;;;4833259;29;20081;-81
2022/06/05 18:41:00;;;;;;;6.45;2.58;;;24.40;94.60;;;;;;4838292;29;20044;-94
2022/06/05 18:43:47;;;;;;;7.82;2.67;;;25.80;95.40;;;;;;4834884;29;20049;-93
2022/06/05 18:46:24;;;;;;;10.25;3.35;;;25.30;94.90;;;;;;4831393;29;20125;-86
2022/06/05 18:48:51;;;;;;;12.90;3.38;;;24.30;95.10;;;;;;4832346;24;20068;-92
2022/06/05 18:51:33;;;;;;;7.60;2.45;;;24.10;95.70;;;;;;4824092;29;20045;-85
2022/06/05 18:54:04;;;;;;;10.15;2.83;;;24.00;95.70;;;;;;4818877;29;20091;-87
2022/06/05 18:56:40;;;;;;;11.13;3.38;;;23.70;96.60;;;;;;4818219;29;20033;-84
2022/06/05 18:59:23;;;;;;;13.07;3.55;;;22.80;98.00;;;;;;4817193;29;20030;-86
2022/06/05 19:19:22;;;;;;;14.07;3.78;;;23.10;97.70;;;;;;4786809;27;20661;-93
2022/06/05 19:21:53;;;;;;;11.10;2.65;;;23.00;98.50;;;;;;4795030;29;20039;-83
2022/06/05 19:26:55;;;;;;;9.57;2.50;;;22.90;98.90;;;;;;4812972;24;20721;-88
2022/06/05 19:29:53;;;;;;;10.98;3.42;;;22.30;99.00;;;;;;4794431;29;20242;-96
2022/06/05 19:33:02;;;;;;;10.40;2.95;;;21.30;98.20;;;;;;4795631;29;20626;-86
2022/06/05 19:37:16;;;;;;;6.70;2.47;;;22.90;98.20;;;;;;4740294;30;20135;-95
2022/06/05 19:38:38;;;;;;;10.82;2.83;;;22.80;98.60;;;;;;4739244;30;20045;-83
2022/06/05 19:41:10;;;;;;;12.48;2.97;;;20.20;98.40;;;;;;4793106;24;20142;-91
2022/06/05 19:43:56;;;;;;;13.80;3.08;;;22.90;98.80;;;;;;4813574;29;20026;-82
2022/06/05 19:46:22;;;;;;;7.30;2.40;;;22.90;98.80;;;;;;4829876;29;20118;-83
2022/06/05 19:48:50;;;;;;;9.15;2.88;;;22.90;98.60;;;;;;4817272;29;20266;-93
2022/06/05 19:51:30;;;;;;;12.63;3.17;;;23.00;98.20;;;;;;4824521;29;20222;-89
2022/06/05 19:54:02;;;;;;;13.68;2.88;;;23.20;97.80;;;;;;4815132;29;20038;-94
2022/06/05 19:56:40;;;;;;;11.55;3.13;;;23.30;97.70;;;;;;4816913;29;20023;-82
2022/06/05 19:59:30;;;;;;;13.05;3.35;;;23.20;97.70;;;;;;4813931;29;20023;-86
2022/06/05 20:02:00;;;;;;;6.85;2.70;;;23.40;97.60;;;;;;4794800;29;20083;-91
2022/06/05 20:04:38;;;;;;;11.27;3.03;;;23.50;97.50;;;;;;4799606;29;20090;-85
2022/06/05 20:07:13;;;;;;;12.02;3.10;;;23.40;97.40;;;;;;4800092;29;20101;-91
2022/06/05 20:09:42;;;;;;;10.85;3.08;;;23.50;97.30;;;;;;4796319;29;20057;-80
2022/06/05 20:12:26;;;;;;;15.63;4.05;;;23.50;97.40;;;;;;4795770;29;20019;-86
2022/06/05 20:15:35;;;;;;;9.80;2.72;;;23.80;96.80;;;;;;4798609;29;20023;-88
2022/06/05 20:21:17;;;;;;;10.50;3.47;;;23.40;97.40;;;;;;4821196;24;20153;-83
2022/06/05 20:24:10;;;;;;;11.98;2.92;;;23.40;97.50;;;;;;4811739;29;20054;-84
2022/06/05 20:26:52;;;;;;;11.32;3.88;;;23.10;97.60;;;;;;4811809;29;20034;-83
2022/06/05 20:29:55;;;;;;;9.47;2.87;;;23.30;98.30;;;;;;4812429;29;20107;-87
2022/06/05 20:32:25;;;;;;;13.35;3.28;;;23.60;98.30;;;;;;4810389;29;20038;-84
2022/06/05 20:34:51;;;;;;;12.13;3.60;;;22.90;98.10;;;;;;4814098;29;20247;-82
2022/06/05 20:37:37;;;;;;;9.82;3.17;;;23.00;97.60;;;;;;4813638;29;20539;-84
2022/06/05 20:43:18;;;;;;;9.95;2.65;;;22.90;98.40;;;;;;4846616;24;20931;-86
2022/06/05 20:45:47;;;;;;;7.32;2.88;;;22.70;98.70;;;;;;4814641;29;20342;-88
2022/06/05 20:48:28;;;;;;;11.35;3.53;;;23.20;97.60;;;;;;4821914;29;20353;-89
2022/06/05 20:51:03;;;;;;;14.68;3.60;;;23.00;97.80;;;;;;4823788;29;20122;-85
2022/06/05 20:53:40;;;;;;;13.82;3.65;;;22.80;98.50;;;;;;4820973;29;20559;-90
2022/06/05 20:56:12;;;;;;;7.57;2.35;;;21.30;98.70;;;;;;4836566;29;20039;-91
2022/06/05 20:58:58;;;;;;;9.02;2.85;;;22.50;99.30;;;;;;4819252;29;20030;-85
2022/06/05 21:01:26;;;;;;;10.13;3.60;;;22.40;99.50;;;;;;4820225;29;20095;-92
2022/06/05 21:09:28;;;;;;;11.38;3.72;;;23.40;99.90;;;;;;4820502;29;20091;-91
2022/06/05 21:17:27;;;;;;;11.68;3.17;;;22.40;99.90;;;;;;4838661;29;20088;-80
2022/06/05 21:20:32;;;;;;;12.88;3.08;;;22.10;99.50;;;;;;4834171;29;20039;-85
2022/06/05 21:23:02;;;;;;;10.23;2.85;;;22.20;98.80;;;;;;4838733;29;20031;-87
2022/06/05 21:25:36;;;;;;;8.27;2.90;;;23.00;98.30;;;;;;4831715;29;20412;-90
2022/06/05 21:28:12;;;;;;;15.32;3.00;;;22.60;98.20;;;;;;4828405;29;20031;-87
2022/06/05 21:30:46;;;;;;;10.75;3.38;;;22.70;98.60;;;;;;4829700;29;20031;-90
2022/06/05 21:33:13;;;;;;;11.52;2.70;;;23.10;97.60;;;;;;4840474;29;20306;-82
2022/06/05 21:35:44;;;;;;;10.88;3.50;;;23.10;96.40;;;;;;4838391;29;20320;-90
2022/06/05 21:38:41;;;;;;;8.35;3.50;;;23.10;96.60;;;;;;4839919;29;20030;-82
2022/06/05 21:41:38;;;;;;;9.23;2.95;;;24.90;97.40;;;;;;4840348;29;20044;-85
2022/06/05 21:44:33;;;;;;;13.23;2.33;;;23.00;97.10;;;;;;4843213;29;20022;-93
2022/06/05 21:47:15;;;;;;;13.63;3.50;;;23.30;97.10;;;;;;4834205;29;20053;-92
2022/06/05 21:49:44;;;;;;;14.07;3.20;;;23.40;97.30;;;;;;4825557;29;20034;-84
2022/06/05 21:52:19;;;;;;;15.52;2.65;;;23.10;97.40;;;;;;4822803;29;20037;-85
2022/06/05 21:55:16;;;;;;;18.73;4.10;;;22.90;97.60;;;;;;4826130;29;20155;-90
2022/06/05 21:57:48;;;;;;;12.50;2.88;;;22.70;98.10;;;;;;4774513;30;20044;-87
2022/06/05 22:00:45;;;;;;;10.00;2.70;;;22.60;98.30;;;;;;4794793;29;20554;-88
2022/06/05 22:03:15;;;;;;;9.18;2.30;;;22.50;98.60;;;;;;4788911;29;20035;-88
2022/06/05 22:05:57;;;;;;;9.50;3.05;;;22.40;98.80;;;;;;4802447;30;20028;-83
2022/06/05 22:08:24;;;;;;;9.75;2.92;;;22.60;98.80;;;;;;4804118;30;20102;-91
2022/06/05 22:10:51;;;;;;;11.20;2.80;;;22.70;97.70;;;;;;4802298;30;20063;-88
2022/06/05 22:13:22;;;;;;;7.40;2.80;;;22.60;98.00;;;;;;4789774;30;20039;-81
2022/06/05 22:16:14;;;;;;;15.73;3.30;;;22.50;97.90;;;;;;4785020;30;20068;-93
2022/06/05 22:18:48;;;;;;;10.43;2.67;;;22.50;97.60;;;;;;4806397;29;20007;-88
2022/06/05 22:21:42;;;;;;;10.80;3.03;;;22.80;98.10;;;;;;4809825;30;20023;-83
2022/06/05 22:24:27;;;;;;;8.02;2.35;;;23.20;96.90;;;;;;4810871;29;20040;-85
2022/06/05 22:29:35;;;;;;;9.77;3.20;;;23.40;96.90;;;;;;4827914;29;20058;-80
2022/06/05 22:46:57;;;;;;;12.43;3.55;;;23.00;96.90;;;;;;5534232;24;20142;-95
2022/06/05 22:52:31;;;;;;;10.68;3.58;;;;;;;;;;4810490;29;20164;-89
2022/06/05 22:55:03;;;;;;;10.40;2.90;;;22.30;98.20;;;;;;4795105;30;20032;-95
2022/06/05 22:57:30;;;;;;;10.60;2.47;;;22.60;98.90;;;;;;4810071;29;20044;-93
2022/06/05 23:00:09;;;;;;;7.50;2.25;;;21.90;98.80;;;;;;4810458;30;20019;-87
2022/06/05 23:02:39;;;;;;;8.57;2.25;;;21.70;98.80;;;;;;4747145;30;20020;-88